Terminal Aerodrome Forecast
Issued by NWS

Home | Current Version | Previous Version | Text Only | Print | Product List | Glossary On
Versions: 1 2 3 4 5 6 7 8 9 10 11 12 13 14 15 16 17 18 19 20 21
000
FTUS44 KLZK 071720
TAFPBF
TAF
KPBF 071720Z 0718/0818 24013G18KT P6SM BKN030
     FM072000 21007KT P6SM VCTS SCT030CB BKN250
     FM080300 20004KT P6SM BKN250=

USA.gov is the U.S. government's official web portal to all federal, state and local government web resources and services.